Time;durP1;ratioP1;P1;durP2;ratioP2;P2;SDS_P1;SDS_P2;PMS_P1;PMS_P2;Temp;Humidity;BMP_temperature;BMP_pressure;BME280_temperature;BME280_humidity;BME280_pressure;Samples;Min_cycle;Max_cycle;Signal;HPM_P1;HPM_P2
2022/06/09 00:01:06;;;;;;;9.95;5.43;;;16.00;99.90;;;;;;5058132;28;20053;-77
2022/06/09 00:03:39;;;;;;;8.98;5.20;;;16.10;99.90;;;;;;5044559;28;20049;-78
2022/06/09 00:06:09;;;;;;;8.23;5.05;;;16.10;99.90;;;;;;5043965;28;20049;-77
2022/06/09 00:08:40;;;;;;;9.10;5.78;;;16.00;99.90;;;;;;5060344;28;20037;-77
2022/06/09 00:11:13;;;;;;;8.32;5.43;;;16.00;99.90;;;;;;5070873;28;20054;-77
2022/06/09 00:13:41;;;;;;;5.95;4.72;;;16.00;99.90;;;;;;5070536;28;20048;-77
2022/06/09 00:16:10;;;;;;;7.60;4.93;;;16.00;99.90;;;;;;5065636;28;20053;-77
2022/06/09 00:18:37;;;;;;;7.88;4.60;;;15.90;99.90;;;;;;5058352;28;20114;-78
2022/06/09 00:21:05;;;;;;;6.78;4.80;;;15.90;99.90;;;;;;5057329;28;20049;-77
2022/06/09 00:23:32;;;;;;;8.32;3.95;;;15.90;99.90;;;;;;5045608;28;20041;-78
2022/06/09 00:25:59;;;;;;;11.07;4.30;;;15.90;99.90;;;;;;5035130;28;20053;-77
2022/06/09 00:28:29;;;;;;;8.95;4.75;;;15.90;99.90;;;;;;5035623;28;20554;-78
2022/06/09 00:30:56;;;;;;;7.90;4.88;;;15.90;99.90;;;;;;5035085;28;20420;-77
2022/06/09 00:33:23;;;;;;;7.20;4.93;;;15.90;99.90;;;;;;5053620;28;20550;-77
2022/06/09 00:35:51;;;;;;;6.05;4.05;;;15.90;99.90;;;;;;5054976;28;20056;-78
2022/06/09 00:38:18;;;;;;;8.70;4.70;;;16.00;99.90;;;;;;5055037;28;20048;-78
2022/06/09 00:40:45;;;;;;;6.45;4.57;;;15.90;99.90;;;;;;5055667;28;20048;-77
2022/06/09 00:43:13;;;;;;;7.10;4.22;;;15.90;99.90;;;;;;5055737;28;20037;-78
2022/06/09 00:45:45;;;;;;;7.70;4.15;;;15.90;99.90;;;;;;5054522;28;20055;-77
2022/06/09 00:48:22;;;;;;;6.10;3.88;;;15.90;99.90;;;;;;5055832;28;20041;-77
2022/06/09 00:50:54;;;;;;;12.52;4.55;;;15.90;99.90;;;;;;5054440;28;20077;-77
2022/06/09 00:53:26;;;;;;;15.35;5.97;;;15.90;99.90;;;;;;5053742;28;20412;-77
2022/06/09 00:55:54;;;;;;;8.35;4.20;;;15.90;99.90;;;;;;5054831;28;20044;-77
2022/06/09 00:58:24;;;;;;;8.40;3.97;;;15.80;99.90;;;;;;5055361;28;20041;-76
2022/06/09 01:00:58;;;;;;;9.98;4.10;;;15.80;99.90;;;;;;5053907;28;20056;-77
2022/06/09 01:03:36;;;;;;;7.82;4.03;;;15.80;99.90;;;;;;5040105;28;20049;-77
2022/06/09 01:06:07;;;;;;;8.30;3.72;;;15.80;99.90;;;;;;5045203;28;20495;-77
2022/06/09 01:08:36;;;;;;;8.55;3.85;;;15.90;99.90;;;;;;5050370;28;20053;-77
2022/06/09 01:11:05;;;;;;;8.20;4.00;;;15.90;99.90;;;;;;5050308;28;20041;-78
2022/06/09 01:13:33;;;;;;;7.43;3.50;;;15.90;99.90;;;;;;5053829;28;20041;-76
2022/06/09 01:16:08;;;;;;;7.82;3.75;;;15.90;99.90;;;;;;5054452;28;20492;-77
2022/06/09 01:18:44;;;;;;;6.75;3.88;;;15.80;99.90;;;;;;5054006;28;20057;-77
2022/06/09 01:21:37;;;;;;;5.47;3.10;;;15.80;99.90;;;;;;5054528;28;20049;-77
2022/06/09 01:24:37;;;;;;;6.20;3.40;;;15.70;99.90;;;;;;5057612;28;20045;-77
2022/06/09 01:27:17;;;;;;;5.38;3.50;;;15.70;99.90;;;;;;5058710;28;20055;-77
2022/06/09 01:29:51;;;;;;;7.88;3.90;;;15.70;99.90;;;;;;5077931;28;20053;-77
2022/06/09 01:32:28;;;;;;;7.05;3.97;;;15.70;99.90;;;;;;5056273;28;20444;-77
2022/06/09 01:35:06;;;;;;;9.27;3.53;;;15.60;99.90;;;;;;5053932;28;20045;-77
2022/06/09 01:37:37;;;;;;;6.22;3.35;;;15.70;99.90;;;;;;5039876;28;20059;-77
2022/06/09 01:40:07;;;;;;;4.50;3.20;;;15.70;99.90;;;;;;5057944;28;20500;-77
2022/06/09 01:42:37;;;;;;;9.68;3.47;;;15.70;99.90;;;;;;5054188;28;20044;-78
2022/06/09 01:45:09;;;;;;;4.90;2.83;;;15.70;99.90;;;;;;5056271;28;20048;-78
2022/06/09 01:47:49;;;;;;;5.90;3.33;;;15.70;99.90;;;;;;5046410;28;20044;-77
2022/06/09 01:50:25;;;;;;;9.70;3.40;;;15.70;99.90;;;;;;5055639;28;20450;-77
2022/06/09 01:52:53;;;;;;;;;;;15.70;99.90;;;;;;5053933;28;20040;-77
2022/06/09 01:55:23;;;;;;;6.65;4.88;;;15.70;99.90;;;;;;5054896;28;19951;-78
2022/06/09 01:58:01;;;;;;;6.35;4.47;;;15.70;99.90;;;;;;5056474;28;20051;-77
2022/06/09 02:00:31;;;;;;;6.57;3.70;;;15.70;99.90;;;;;;5055075;28;20354;-78
2022/06/09 02:03:05;;;;;;;6.95;3.72;;;15.60;99.90;;;;;;5056281;28;20067;-79
2022/06/09 02:05:37;;;;;;;7.82;4.32;;;15.70;99.90;;;;;;5054766;28;20033;-78
2022/06/09 02:08:08;;;;;;;7.47;4.25;;;15.70;99.90;;;;;;5049882;28;20105;-76
2022/06/09 02:10:39;;;;;;;8.57;4.70;;;15.70;99.90;;;;;;5054237;28;20049;-77
2022/06/09 02:13:09;;;;;;;6.68;4.30;;;15.70;99.90;;;;;;5050319;28;20136;-77
2022/06/09 02:15:39;;;;;;;10.25;5.18;;;15.80;99.90;;;;;;5056479;28;20110;-78
2022/06/09 02:18:11;;;;;;;8.00;5.10;;;15.80;99.90;;;;;;5063334;28;20120;-77
2022/06/09 02:20:42;;;;;;;7.90;4.90;;;15.80;99.90;;;;;;5049021;28;20045;-79
2022/06/09 02:23:11;;;;;;;10.93;5.22;;;15.80;99.90;;;;;;5057853;28;20033;-78
2022/06/09 02:25:39;;;;;;;7.72;4.30;;;15.80;99.90;;;;;;5055772;28;20049;-77
2022/06/09 02:28:07;;;;;;;10.55;4.10;;;15.80;99.90;;;;;;5055250;28;20041;-77
2022/06/09 02:30:35;;;;;;;7.20;3.97;;;15.80;99.90;;;;;;5055018;28;20067;-78
2022/06/09 02:33:03;;;;;;;4.57;3.70;;;15.80;99.90;;;;;;5045723;28;20106;-77
2022/06/09 02:35:32;;;;;;;9.77;4.88;;;15.80;99.90;;;;;;5044619;28;20047;-77
2022/06/09 02:38:01;;;;;;;7.13;4.10;;;15.80;99.90;;;;;;5055045;28;20052;-79
2022/06/09 02:40:29;;;;;;;7.32;3.88;;;15.80;99.90;;;;;;5054882;28;20072;-77
2022/06/09 02:42:56;;;;;;;6.45;4.22;;;15.80;99.90;;;;;;5051654;28;20537;-78
2022/06/09 02:45:24;;;;;;;6.28;4.07;;;15.80;99.90;;;;;;5067366;28;20056;-77
2022/06/09 02:47:51;;;;;;;8.25;4.13;;;15.90;99.90;;;;;;5052736;28;20045;-77
2022/06/09 02:50:19;;;;;;;7.65;4.47;;;15.90;99.90;;;;;;5055411;28;20041;-77
2022/06/09 02:52:47;;;;;;;7.38;4.30;;;15.90;99.90;;;;;;5065787;28;20045;-78
2022/06/09 02:55:15;;;;;;;9.88;4.55;;;15.80;99.90;;;;;;5056633;28;20046;-78
2022/06/09 02:57:42;;;;;;;8.23;4.43;;;15.80;99.90;;;;;;5055212;28;20508;-77
2022/06/09 03:00:14;;;;;;;8.43;4.40;;;15.80;99.90;;;;;;5058063;28;20055;-77
2022/06/09 03:02:42;;;;;;;7.72;3.60;;;15.90;99.90;;;;;;5057926;28;20053;-77
2022/06/09 03:05:10;;;;;;;5.90;3.30;;;15.80;99.90;;;;;;5054195;28;20048;-77
2022/06/09 03:07:37;;;;;;;6.03;3.50;;;15.90;99.90;;;;;;5058065;28;20075;-77
2022/06/09 03:10:07;;;;;;;4.82;3.38;;;15.90;99.90;;;;;;5058145;28;20113;-79
2022/06/09 03:12:34;;;;;;;8.65;4.10;;;15.90;99.90;;;;;;5063377;28;20487;-77
2022/06/09 03:15:02;;;;;;;5.68;3.85;;;15.90;99.90;;;;;;5067903;28;20081;-78
2022/06/09 03:17:29;;;;;;;13.07;4.32;;;15.90;99.90;;;;;;5076676;28;20067;-77
2022/06/09 03:19:56;;;;;;;6.95;4.00;;;15.90;99.90;;;;;;5076992;28;20029;-78
2022/06/09 03:22:24;;;;;;;6.80;3.38;;;15.90;99.90;;;;;;5067190;28;20049;-75
2022/06/09 03:24:51;;;;;;;6.97;3.97;;;15.90;99.90;;;;;;5062373;28;20159;-76
2022/06/09 03:27:20;;;;;;;9.20;4.00;;;15.90;99.90;;;;;;5058285;28;20491;-78
2022/06/09 03:29:47;;;;;;;6.75;4.30;;;15.90;99.90;;;;;;5055876;28;20044;-77
2022/06/09 03:32:14;;;;;;;6.57;4.30;;;15.90;99.90;;;;;;5056828;28;20053;-77
2022/06/09 03:34:42;;;;;;;7.25;3.30;;;16.00;99.90;;;;;;5055977;28;20047;-77
2022/06/09 03:37:09;;;;;;;7.30;3.83;;;16.00;99.90;;;;;;5057434;28;20522;-78
2022/06/09 03:39:38;;;;;;;8.50;4.10;;;16.00;99.90;;;;;;5057929;28;20045;-78
2022/06/09 03:42:06;;;;;;;9.15;4.22;;;15.90;99.90;;;;;;5057789;28;20512;-77
2022/06/09 03:44:34;;;;;;;6.15;4.05;;;16.00;99.90;;;;;;5068686;28;20072;-77
2022/06/09 03:47:02;;;;;;;10.73;4.18;;;16.00;99.90;;;;;;5063234;28;20033;-77
2022/06/09 03:49:29;;;;;;;6.60;4.22;;;16.00;99.90;;;;;;5061838;28;20048;-77
2022/06/09 03:51:57;;;;;;;7.32;3.85;;;16.00;99.90;;;;;;5073524;28;20041;-77
2022/06/09 03:54:24;;;;;;;7.78;4.00;;;16.00;99.90;;;;;;5075026;28;20048;-77
2022/06/09 03:56:52;;;;;;;8.07;4.07;;;16.10;99.90;;;;;;5075700;28;20071;-79
2022/06/09 03:59:19;;;;;;;7.53;4.47;;;16.20;99.90;;;;;;5063990;28;20041;-78
2022/06/09 04:01:48;;;;;;;6.72;4.22;;;16.30;99.90;;;;;;5065149;28;20045;-77
2022/06/09 04:04:15;;;;;;;4.95;3.40;;;16.30;99.90;;;;;;5057082;28;20045;-78
2022/06/09 04:06:43;;;;;;;6.20;3.63;;;16.40;99.90;;;;;;5037733;28;20049;-77
2022/06/09 04:09:12;;;;;;;10.70;3.40;;;16.40;99.90;;;;;;5056763;28;20044;-77
2022/06/09 04:11:39;;;;;;;8.02;3.22;;;16.50;99.90;;;;;;5056943;28;20534;-77
2022/06/09 04:14:06;;;;;;;4.38;3.63;;;16.50;99.90;;;;;;5057235;28;20048;-77
2022/06/09 04:16:37;;;;;;;7.13;3.42;;;16.60;99.90;;;;;;5057552;28;20539;-76
2022/06/09 04:19:09;;;;;;;6.70;3.72;;;16.60;99.90;;;;;;5057949;28;20040;-78
2022/06/09 04:21:37;;;;;;;12.38;4.22;;;16.70;99.90;;;;;;5058428;28;20052;-77
2022/06/09 04:24:05;;;;;;;7.00;3.47;;;16.70;99.90;;;;;;5064916;28;20041;-77
2022/06/09 04:26:35;;;;;;;6.30;3.03;;;16.80;99.90;;;;;;5068604;28;20123;-77
2022/06/09 04:29:04;;;;;;;10.25;3.55;;;16.80;99.90;;;;;;5065542;28;20099;-78
2022/06/09 04:31:31;;;;;;;3.53;2.50;;;16.80;99.90;;;;;;5059195;28;20045;-78
2022/06/09 04:33:59;;;;;;;4.63;2.80;;;16.90;99.90;;;;;;5056650;28;20413;-77
2022/06/09 04:36:27;;;;;;;7.30;3.15;;;16.90;99.90;;;;;;5058289;28;20087;-79
2022/06/09 04:38:55;;;;;;;5.93;3.05;;;16.90;99.90;;;;;;5047385;28;20041;-77
2022/06/09 04:41:22;;;;;;;4.85;2.78;;;16.90;99.90;;;;;;5054110;28;20048;-75
2022/06/09 04:43:50;;;;;;;8.20;2.80;;;17.00;99.90;;;;;;5043227;28;20373;-78
2022/06/09 04:46:20;;;;;;;8.02;3.22;;;17.00;99.90;;;;;;5036983;28;20095;-77
2022/06/09 04:48:48;;;;;;;6.82;2.72;;;17.10;99.90;;;;;;5050892;28;20049;-78
2022/06/09 04:51:18;;;;;;;4.82;3.05;;;17.20;99.90;;;;;;5055674;28;20483;-76
2022/06/09 04:53:48;;;;;;;7.15;2.83;;;17.30;99.90;;;;;;5047896;28;20092;-77
2022/06/09 04:56:16;;;;;;;4.47;2.90;;;17.40;99.90;;;;;;5050552;28;20071;-77
2022/06/09 04:58:44;;;;;;;8.43;2.90;;;17.40;99.90;;;;;;5054656;28;20565;-75
2022/06/09 05:01:17;;;;;;;6.88;3.15;;;17.50;99.90;;;;;;5054549;28;20076;-77
2022/06/09 05:03:44;;;;;;;4.78;2.67;;;17.50;99.90;;;;;;5055557;28;20037;-77
2022/06/09 05:06:12;;;;;;;5.20;2.88;;;17.60;99.90;;;;;;5055209;28;20040;-77
2022/06/09 05:08:40;;;;;;;4.45;2.70;;;17.70;99.90;;;;;;5054088;28;20063;-77
2022/06/09 05:11:10;;;;;;;6.57;3.95;;;17.80;99.90;;;;;;5051927;28;20056;-78
2022/06/09 05:13:37;;;;;;;7.63;3.78;;;18.10;99.90;;;;;;5055572;28;20045;-78
2022/06/09 05:16:05;;;;;;;6.00;3.20;;;18.10;99.90;;;;;;5054719;28;20049;-76
2022/06/09 05:18:33;;;;;;;8.88;3.22;;;18.20;99.90;;;;;;5054254;28;20504;-76
2022/06/09 05:21:01;;;;;;;8.65;3.42;;;18.20;99.90;;;;;;5042122;28;20048;-77
2022/06/09 05:23:29;;;;;;;7.85;3.38;;;18.30;99.90;;;;;;5045523;28;20483;-75
2022/06/09 05:25:59;;;;;;;5.57;3.50;;;18.50;99.90;;;;;;5047699;28;20036;-76
2022/06/09 05:28:29;;;;;;;7.38;4.03;;;18.60;99.90;;;;;;5049152;28;20053;-76
2022/06/09 05:30:57;;;;;;;10.77;4.32;;;18.80;99.90;;;;;;5041808;28;20412;-78
2022/06/09 05:33:25;;;;;;;8.65;4.20;;;19.20;99.90;;;;;;5052010;28;20062;-75
2022/06/09 05:35:52;;;;;;;15.95;4.47;;;19.40;99.90;;;;;;5053347;28;20082;-75
2022/06/09 05:46:36;;;;;;;13.73;7.22;;;19.80;99.90;;;;;;5046736;28;20061;-76
2022/06/09 05:49:03;;;;;;;15.55;5.30;;;19.90;99.90;;;;;;5043915;28;20160;-76
2022/06/09 05:51:32;;;;;;;8.15;3.80;;;19.80;99.90;;;;;;5045447;28;20048;-76
2022/06/09 05:53:59;;;;;;;14.30;3.80;;;19.70;99.90;;;;;;5053648;28;20400;-76
2022/06/09 05:56:26;;;;;;;13.80;4.45;;;19.70;99.90;;;;;;5054068;28;20099;-76
2022/06/09 05:58:56;;;;;;;10.35;4.00;;;19.50;99.90;;;;;;5052626;28;20118;-75
2022/06/09 06:01:23;;;;;;;10.98;3.60;;;19.40;99.90;;;;;;5050811;28;20041;-75
2022/06/09 06:03:50;;;;;;;10.40;4.10;;;19.50;99.90;;;;;;5046776;28;20112;-77
2022/06/09 06:06:36;;;;;;;13.63;4.25;;;19.60;99.90;;;;;;5053822;28;20053;-77
2022/06/09 06:09:06;;;;;;;6.03;3.45;;;19.80;99.90;;;;;;5053557;28;20033;-77
2022/06/09 06:11:35;;;;;;;9.68;5.60;;;20.00;99.90;;;;;;5054445;28;20040;-76
2022/06/09 06:14:05;;;;;;;12.27;3.88;;;20.20;99.90;;;;;;5054196;28;20044;-80
2022/06/09 06:16:32;;;;;;;7.35;3.03;;;20.40;99.90;;;;;;5052680;28;20520;-78
2022/06/09 06:18:59;;;;;;;7.47;3.30;;;20.60;99.90;;;;;;5053874;28;20041;-76
2022/06/09 06:21:27;;;;;;;8.70;3.72;;;20.60;99.90;;;;;;5052568;28;20072;-75
2022/06/09 06:23:55;;;;;;;9.57;3.10;;;20.80;99.90;;;;;;5051711;28;20041;-77
2022/06/09 06:26:23;;;;;;;6.13;3.17;;;20.90;99.90;;;;;;5051010;28;20068;-76
2022/06/09 06:28:51;;;;;;;7.43;3.65;;;21.00;99.90;;;;;;5049776;28;20068;-75
2022/06/09 06:31:20;;;;;;;10.77;4.03;;;21.20;99.90;;;;;;5052568;28;20076;-76
2022/06/09 06:33:47;;;;;;;12.05;4.70;;;21.20;99.90;;;;;;5053578;28;20127;-77
2022/06/09 06:36:14;;;;;;;6.93;4.22;;;21.20;99.90;;;;;;5057181;28;20037;-74
2022/06/09 06:38:42;;;;;;;5.68;3.58;;;21.30;99.90;;;;;;5056912;28;20073;-76
2022/06/09 06:41:12;;;;;;;12.02;3.92;;;21.10;99.90;;;;;;5056882;28;20059;-77
2022/06/09 06:43:39;;;;;;;8.95;4.75;;;21.00;99.90;;;;;;5057747;28;20136;-77
2022/06/09 06:46:07;;;;;;;10.55;4.90;;;21.00;99.90;;;;;;5060191;28;20116;-75
2022/06/09 06:48:36;;;;;;;8.85;5.20;;;21.10;99.90;;;;;;5059378;28;20045;-75
2022/06/09 06:51:05;;;;;;;7.10;4.57;;;21.10;99.90;;;;;;5059008;28;20140;-77
2022/06/09 06:53:32;;;;;;;8.00;3.92;;;21.20;99.90;;;;;;5059529;28;20040;-78
2022/06/09 06:56:00;;;;;;;9.93;3.85;;;21.20;99.90;;;;;;5058938;28;20090;-77
2022/06/09 06:58:28;;;;;;;8.98;3.30;;;21.50;99.90;;;;;;5055750;28;20080;-76
2022/06/09 07:00:56;;;;;;;4.93;2.90;;;21.50;99.90;;;;;;5061069;28;20055;-77
2022/06/09 07:03:23;;;;;;;6.32;3.92;;;21.50;99.90;;;;;;5066726;28;20045;-77
2022/06/09 07:05:52;;;;;;;8.60;5.22;;;21.80;99.90;;;;;;5064057;28;20055;-78
2022/06/09 07:08:20;;;;;;;10.60;4.30;;;21.80;99.90;;;;;;5071757;28;20045;-76
2022/06/09 07:10:47;;;;;;;8.00;2.97;;;22.00;99.90;;;;;;5074604;28;20048;-77
2022/06/09 07:13:14;;;;;;;11.55;3.20;;;22.10;99.90;;;;;;5069320;28;20049;-77
2022/06/09 07:15:42;;;;;;;10.18;3.30;;;22.20;99.90;;;;;;5069991;28;20137;-77
2022/06/09 07:18:10;;;;;;;7.63;2.85;;;22.30;99.90;;;;;;5073228;28;20049;-77
2022/06/09 07:20:37;;;;;;;10.13;4.68;;;22.40;99.90;;;;;;5063244;28;20047;-78
2022/06/09 07:23:06;;;;;;;6.88;3.63;;;22.40;99.90;;;;;;5062083;28;20106;-75
2022/06/09 07:25:34;;;;;;;6.35;3.10;;;22.50;99.90;;;;;;5059649;28;20048;-78
2022/06/09 07:28:01;;;;;;;6.88;3.17;;;22.50;99.90;;;;;;5058925;28;20101;-77
2022/06/09 07:30:29;;;;;;;7.88;4.00;;;22.50;99.90;;;;;;5058393;28;20124;-77
2022/06/09 07:32:57;;;;;;;12.43;6.22;;;22.40;99.90;;;;;;5059381;28;20583;-77
2022/06/09 07:35:28;;;;;;;11.98;5.10;;;22.50;99.90;;;;;;5059059;28;20124;-78
2022/06/09 07:37:55;;;;;;;9.25;4.45;;;22.70;99.90;;;;;;5056804;28;20135;-78
2022/06/09 07:40:24;;;;;;;7.10;4.50;;;22.50;99.90;;;;;;5056409;28;20103;-78
2022/06/09 07:42:52;;;;;;;9.10;6.07;;;22.60;99.90;;;;;;5057114;28;20072;-78
2022/06/09 07:45:19;;;;;;;8.70;4.90;;;22.80;99.90;;;;;;5058381;28;20049;-77
2022/06/09 07:47:47;;;;;;;6.75;3.55;;;22.40;99.90;;;;;;5057702;28;20073;-77
2022/06/09 07:50:16;;;;;;;7.07;3.28;;;22.50;99.90;;;;;;5056162;28;20045;-78
2022/06/09 07:52:43;;;;;;;6.65;2.75;;;22.60;99.90;;;;;;5056668;28;20442;-77
2022/06/09 07:55:11;;;;;;;5.97;2.65;;;22.70;99.90;;;;;;5056351;28;20049;-77
2022/06/09 07:57:40;;;;;;;8.10;5.88;;;22.80;99.90;;;;;;5057454;28;20037;-78
2022/06/09 08:00:09;;;;;;;7.28;3.20;;;22.60;99.90;;;;;;5057358;28;20098;-77
2022/06/09 08:02:39;;;;;;;8.45;3.22;;;22.30;99.90;;;;;;5057228;28;20565;-76
2022/06/09 08:05:08;;;;;;;7.43;3.20;;;22.20;99.90;;;;;;5058415;28;20449;-77
2022/06/09 08:07:35;;;;;;;6.35;3.00;;;22.10;99.90;;;;;;5056901;28;20040;-77
2022/06/09 08:10:04;;;;;;;8.35;3.35;;;22.10;99.90;;;;;;5055421;28;20049;-76
2022/06/09 08:12:31;;;;;;;4.32;2.78;;;22.10;99.90;;;;;;5057796;28;20048;-76
2022/06/09 08:15:00;;;;;;;6.88;3.80;;;22.10;99.90;;;;;;5057602;28;20053;-78
2022/06/09 08:17:27;;;;;;;7.75;3.45;;;22.60;99.90;;;;;;5055713;28;20044;-76
2022/06/09 08:19:55;;;;;;;9.05;4.70;;;22.90;99.90;;;;;;5057209;28;20033;-78
2022/06/09 08:22:22;;;;;;;7.82;3.10;;;23.20;99.90;;;;;;5055373;28;20491;-78
2022/06/09 08:24:49;;;;;;;4.45;2.90;;;23.40;99.90;;;;;;5055555;28;20045;-78
2022/06/09 08:27:17;;;;;;;7.22;4.78;;;23.60;99.90;;;;;;5056082;28;20411;-77
2022/06/09 08:29:44;;;;;;;8.63;5.47;;;23.90;99.90;;;;;;5055302;28;20055;-76
2022/06/09 08:32:14;;;;;;;8.57;4.70;;;24.30;99.90;;;;;;5056843;28;20040;-76
2022/06/09 08:34:41;;;;;;;9.77;3.88;;;24.50;99.90;;;;;;5055898;28;20096;-77
2022/06/09 08:37:08;;;;;;;4.47;3.38;;;24.80;99.90;;;;;;5058277;28;20071;-77
2022/06/09 08:39:36;;;;;;;8.77;4.75;;;25.10;99.90;;;;;;5059774;28;20049;-76
2022/06/09 08:42:23;;;;;;;9.35;6.43;;;25.40;99.90;;;;;;5074657;28;20059;-77
2022/06/09 08:44:58;;;;;;;6.45;3.58;;;25.90;99.90;;;;;;5075156;28;20064;-77
2022/06/09 08:47:36;;;;;;;8.55;5.38;;;26.10;99.90;;;;;;5058272;28;20080;-77
2022/06/09 08:50:11;;;;;;;8.50;3.60;;;26.40;99.90;;;;;;5058207;28;20075;-77
2022/06/09 08:52:42;;;;;;;;;;;26.50;99.90;;;;;;5056089;28;20044;-77
2022/06/09 08:55:26;;;;;;;6.55;2.75;;;26.50;99.90;;;;;;5056537;28;19970;-78
2022/06/09 08:57:58;;;;;;;5.70;3.38;;;26.30;99.90;;;;;;5057141;28;20045;-77
2022/06/09 09:00:31;;;;;;;6.68;3.00;;;26.30;99.90;;;;;;5057355;28;20056;-79
2022/06/09 09:03:04;;;;;;;6.32;4.50;;;26.10;99.90;;;;;;5057064;28;20045;-77
2022/06/09 09:05:39;;;;;;;10.02;5.80;;;26.40;99.90;;;;;;5057220;28;20036;-77
2022/06/09 09:08:09;;;;;;;7.07;3.17;;;26.50;99.90;;;;;;5058994;28;20052;-77
2022/06/09 09:10:57;;;;;;;8.85;3.53;;;26.30;99.90;;;;;;5058589;28;20294;-78
2022/06/09 09:13:39;;;;;;;6.53;3.20;;;26.00;99.90;;;;;;5056455;28;20079;-79
2022/06/09 09:16:13;;;;;;;3.67;2.40;;;25.70;99.90;;;;;;5054434;28;20085;-77
2022/06/09 09:18:47;;;;;;;4.80;2.53;;;25.40;99.90;;;;;;5053945;28;20049;-77
2022/06/09 09:21:39;;;;;;;5.03;2.47;;;24.70;99.90;;;;;;5054828;28;20069;-78
2022/06/09 09:24:23;;;;;;;14.90;4.55;;;24.90;99.90;;;;;;5056991;28;20045;-78
2022/06/09 09:27:13;;;;;;;8.55;2.72;;;25.40;99.90;;;;;;5055477;28;20041;-78
2022/06/09 09:29:47;;;;;;;7.45;2.85;;;25.70;99.90;;;;;;5054835;28;20049;-79
2022/06/09 09:32:21;;;;;;;10.23;6.30;;;26.00;99.90;;;;;;5055206;28;20055;-79
2022/06/09 09:34:51;;;;;;;5.53;2.97;;;26.30;99.90;;;;;;5055352;28;20064;-78
2022/06/09 09:37:28;;;;;;;8.00;3.40;;;26.20;99.90;;;;;;5060871;28;20052;-77
2022/06/09 09:39:59;;;;;;;6.80;3.45;;;26.20;99.90;;;;;;5061840;28;20037;-78
2022/06/09 09:42:29;;;;;;;4.47;2.28;;;26.10;99.90;;;;;;5061922;28;20044;-77
2022/06/09 09:45:13;;;;;;;7.60;2.60;;;25.90;99.90;;;;;;5060820;28;20049;-76
2022/06/09 09:47:48;;;;;;;6.38;2.95;;;25.70;99.90;;;;;;5062683;28;20080;-76
2022/06/09 09:50:26;;;;;;;5.00;3.00;;;25.90;99.90;;;;;;5061418;28;20049;-78
2022/06/09 09:53:00;;;;;;;4.78;2.70;;;25.90;99.90;;;;;;5061399;28;20045;-78
2022/06/09 09:55:40;;;;;;;5.65;2.53;;;26.00;99.90;;;;;;5061084;28;20069;-78
2022/06/09 09:58:22;;;;;;;4.00;2.63;;;26.00;99.90;;;;;;5059164;28;20061;-76
2022/06/09 10:00:53;;;;;;;4.35;2.83;;;26.00;99.90;;;;;;5059308;28;20045;-77
2022/06/09 10:09:13;;;;;;;9.33;4.23;;;26.40;99.90;;;;;;5059635;28;20416;-78
2022/06/09 10:11:54;;;;;;;6.43;3.45;;;26.40;99.90;;;;;;5062968;28;20033;-77
2022/06/09 10:14:43;;;;;;;6.65;3.20;;;26.80;99.90;;;;;;5064347;28;20041;-79
2022/06/09 10:17:36;;;;;;;4.20;2.35;;;27.30;99.90;;;;;;5063964;28;20041;-79
2022/06/09 10:20:17;;;;;;;6.63;4.07;;;27.30;99.90;;;;;;5062423;28;20131;-79
2022/06/09 10:22:57;;;;;;;7.95;4.40;;;26.80;99.90;;;;;;5062302;28;20045;-77
2022/06/09 10:25:32;;;;;;;14.68;11.20;;;26.90;99.90;;;;;;5060764;28;20037;-77
2022/06/09 10:28:05;;;;;;;6.60;4.70;;;26.50;99.90;;;;;;5060773;28;20045;-78
2022/06/09 10:30:37;;;;;;;5.57;3.53;;;26.50;99.90;;;;;;5061417;28;20053;-78
2022/06/09 10:33:17;;;;;;;5.90;3.30;;;25.80;99.90;;;;;;5061570;28;20037;-78
2022/06/09 10:35:51;;;;;;;8.93;4.70;;;24.90;99.90;;;;;;5061947;28;20086;-78
2022/06/09 10:38:26;;;;;;;8.63;5.32;;;25.10;99.90;;;;;;5060705;28;20049;-76
2022/06/09 10:40:57;;;;;;;6.45;3.97;;;25.20;99.90;;;;;;5062065;28;20094;-78
2022/06/09 10:43:31;;;;;;;7.32;3.55;;;25.70;99.90;;;;;;5059857;28;20049;-79
2022/06/09 10:46:05;;;;;;;6.82;3.53;;;25.90;99.90;;;;;;5060369;28;20041;-77
2022/06/09 10:57:15;;;;;;;6.75;3.25;;;25.40;99.90;;;;;;5063243;28;20095;-78
2022/06/09 10:59:49;;;;;;;5.45;3.50;;;24.70;99.90;;;;;;5061499;28;20120;-78
2022/06/09 11:02:19;;;;;;;5.97;3.47;;;24.40;99.90;;;;;;5061398;28;20045;-77
2022/06/09 11:04:49;;;;;;;6.85;3.95;;;24.30;99.90;;;;;;5060251;28;20044;-78
2022/06/09 11:07:39;;;;;;;5.82;3.60;;;24.30;99.90;;;;;;5060918;28;20480;-75
2022/06/09 11:10:23;;;;;;;5.03;3.28;;;24.30;99.90;;;;;;5041439;28;20053;-78
2022/06/09 11:13:06;;;;;;;6.28;3.85;;;24.50;99.90;;;;;;5039866;28;20073;-76
2022/06/09 11:15:40;;;;;;;7.47;4.25;;;25.20;99.90;;;;;;5044589;28;20045;-77
2022/06/09 11:18:29;;;;;;;5.05;3.42;;;25.70;99.90;;;;;;5042561;28;20060;-78
2022/06/09 11:21:08;;;;;;;7.93;3.63;;;25.70;99.90;;;;;;5036850;28;20417;-77
2022/06/09 11:23:53;;;;;;;5.47;3.58;;;25.70;99.90;;;;;;5037935;28;20045;-77
2022/06/09 11:26:30;;;;;;;5.85;3.40;;;25.90;99.90;;;;;;5041682;28;20073;-79
2022/06/09 11:29:08;;;;;;;6.00;3.55;;;26.00;99.90;;;;;;5036308;28;20103;-79
2022/06/09 11:31:53;;;;;;;9.02;3.15;;;25.60;99.90;;;;;;5037453;28;20122;-78
2022/06/09 11:34:44;;;;;;;5.90;3.40;;;25.60;99.90;;;;;;5037235;28;20045;-78
2022/06/09 11:37:29;;;;;;;6.88;3.38;;;25.30;99.90;;;;;;5036068;28;20041;-79
2022/06/09 11:40:06;;;;;;;6.13;3.63;;;25.20;99.90;;;;;;5040708;28;20072;-79
2022/06/09 11:42:49;;;;;;;4.78;3.20;;;25.30;99.90;;;;;;5038126;28;20374;-79
2022/06/09 11:45:38;;;;;;;6.18;3.63;;;25.60;99.90;;;;;;5038069;28;20400;-79
2022/06/09 11:48:13;;;;;;;7.70;4.30;;;26.00;99.90;;;;;;5037904;28;20049;-79
2022/06/09 11:50:43;;;;;;;5.95;3.90;;;26.20;99.90;;;;;;5040759;28;20041;-78
2022/06/09 11:53:18;;;;;;;5.68;3.60;;;26.20;99.90;;;;;;5040415;28;20068;-79
2022/06/09 11:56:00;;;;;;;6.68;3.15;;;25.70;99.90;;;;;;5058097;28;20490;-79
2022/06/09 11:58:47;;;;;;;3.75;2.70;;;25.70;99.90;;;;;;5060459;28;20098;-78
2022/06/09 12:01:42;;;;;;;5.95;3.33;;;25.50;99.90;;;;;;5053809;28;20135;-78
2022/06/09 12:04:24;;;;;;;4.60;2.90;;;25.20;99.90;;;;;;5063882;28;20090;-77
2022/06/09 12:07:11;;;;;;;8.38;3.78;;;24.90;99.90;;;;;;5047560;28;20052;-77
2022/06/09 12:09:51;;;;;;;6.22;3.58;;;24.90;99.90;;;;;;5042655;28;20532;-78
2022/06/09 12:12:32;;;;;;;6.70;3.50;;;24.80;99.90;;;;;;5041146;28;20045;-78
2022/06/09 12:15:21;;;;;;;9.52;5.32;;;24.50;99.90;;;;;;5038324;28;20061;-78
2022/06/09 12:18:26;;;;;;;5.35;3.58;;;24.70;99.90;;;;;;5036395;28;20064;-79
2022/06/09 12:21:06;;;;;;;11.40;8.55;;;24.50;99.90;;;;;;5040303;28;20041;-77
2022/06/09 12:23:37;;;;;;;7.40;5.05;;;24.70;99.90;;;;;;5047210;28;20124;-78
2022/06/09 12:26:44;;;;;;;12.43;6.15;;;25.10;99.90;;;;;;5038458;28;20068;-78
2022/06/09 12:29:24;;;;;;;10.63;7.60;;;25.30;99.90;;;;;;5031081;28;20080;-78
2022/06/09 12:32:44;;;;;;;5.72;4.30;;;25.50;99.90;;;;;;5044624;28;20512;-79
2022/06/09 12:35:34;;;;;;;7.68;3.92;;;25.50;99.90;;;;;;5054936;28;20049;-77
2022/06/09 12:38:05;;;;;;;7.68;4.90;;;25.40;99.90;;;;;;5036213;28;20082;-76
2022/06/09 12:40:42;;;;;;;33.40;4.50;;;25.30;99.90;;;;;;5038400;28;20539;-77
2022/06/09 12:43:26;;;;;;;14.35;2.70;;;24.60;99.90;;;;;;5043370;28;20072;-76
2022/06/09 12:46:17;;;;;;;3.75;1.42;;;23.60;99.90;;;;;;5054097;28;20049;-78
2022/06/09 12:48:46;;;;;;;5.03;1.60;;;22.90;99.90;;;;;;5041687;28;20136;-76
2022/06/09 12:51:20;;;;;;;8.77;2.92;;;22.50;99.90;;;;;;5062259;28;20081;-76
2022/06/09 12:54:06;;;;;;;10.13;5.20;;;22.00;99.90;;;;;;5068859;28;20096;-77
2022/06/09 12:56:39;;;;;;;4.97;1.33;;;21.60;99.90;;;;;;5067632;28;20041;-76
2022/06/09 12:59:19;;;;;;;14.05;2.47;;;21.10;99.90;;;;;;5061161;28;20417;-79
2022/06/09 13:02:00;;;;;;;7.38;2.13;;;20.80;99.90;;;;;;5054367;28;20127;-78
2022/06/09 13:04:29;;;;;;;5.88;1.92;;;20.00;99.90;;;;;;5059876;28;20120;-78
2022/06/09 13:07:00;;;;;;;3.35;1.38;;;19.40;99.90;;;;;;5060013;28;20041;-79
2022/06/09 13:09:31;;;;;;;4.22;1.40;;;18.90;99.90;;;;;;5061916;28;20057;-78
2022/06/09 13:14:48;;;;;;;5.95;3.00;;;18.60;99.90;;;;;;5040192;28;20473;-78
2022/06/09 13:17:19;;;;;;;5.82;2.80;;;18.40;99.90;;;;;;5037328;28;20044;-78
2022/06/09 13:19:56;;;;;;;14.50;6.20;;;18.30;99.90;;;;;;5035815;28;20049;-77
2022/06/09 13:22:27;;;;;;;13.43;6.97;;;18.30;99.90;;;;;;5033262;28;20091;-77
2022/06/09 13:24:55;;;;;;;11.85;3.97;;;18.40;99.90;;;;;;5048814;28;20044;-76
2022/06/09 13:27:26;;;;;;;14.90;6.03;;;18.50;99.90;;;;;;5045545;28;20053;-76
2022/06/09 13:30:05;;;;;;;8.82;3.40;;;18.60;99.90;;;;;;5050907;28;20393;-76
2022/06/09 13:32:40;;;;;;;3.35;1.88;;;18.60;99.90;;;;;;5034212;28;20053;-76
2022/06/09 13:35:34;;;;;;;5.75;2.42;;;18.60;99.90;;;;;;5034393;28;20049;-75
2022/06/09 13:38:17;;;;;;;8.40;2.97;;;18.70;99.90;;;;;;5045212;28;20096;-77